Time;durP1;ratioP1;P1;durP2;ratioP2;P2;SDS_P1;SDS_P2;PMS_P1;PMS_P2;Temp;Humidity;BMP_temperature;BMP_pressure;BME280_temperature;BME280_humidity;BME280_pressure;Samples;Min_cycle;Max_cycle;Signal;HPM_P1;HPM_P2
2024/02/13 08:41:51;;;;;;;3.75;1.13;;;;;;;-143.29;100.00;62188.47;4947759;23;20075;-96
2024/02/13 08:44:18;;;;;;;4.53;1.52;;;;;;;-143.29;100.00;62188.47;4920035;29;20073;-96
2024/02/13 08:46:44;;;;;;;2.20;1.17;;;;;;;-143.29;100.00;62188.47;4915906;29;20016;-96
2024/02/13 08:49:10;;;;;;;4.75;1.52;;;;;;;-143.29;100.00;62188.47;4911541;29;20088;-96
2024/02/13 08:51:37;;;;;;;4.78;1.33;;;;;;;-143.29;100.00;62188.47;4909016;29;20020;-96
2024/02/13 08:54:02;;;;;;;4.55;1.55;;;;;;;-143.29;100.00;62188.47;4909496;29;20574;-96
2024/02/13 08:56:28;;;;;;;7.32;1.73;;;;;;;-143.29;100.00;62188.47;4909884;29;20029;-95
2024/02/13 08:58:54;;;;;;;5.50;1.70;;;;;;;-143.29;100.00;62188.47;4911883;29;20080;-96
2024/02/13 09:01:20;;;;;;;11.75;1.80;;;;;;;-143.29;100.00;62188.47;4911510;29;20028;-96
2024/02/13 09:03:47;;;;;;;8.27;1.50;;;;;;;-143.29;100.00;62188.47;4911161;29;20487;-96
2024/02/13 09:06:15;;;;;;;4.63;1.77;;;;;;;-143.29;100.00;62188.47;4912584;29;20024;-96
2024/02/13 09:08:42;;;;;;;5.47;1.40;;;;;;;-143.29;100.00;62188.47;4913369;29;20028;-96
2024/02/13 09:11:12;;;;;;;3.85;1.67;;;;;;;-143.29;100.00;62188.47;4912372;29;20034;-96
2024/02/13 09:13:39;;;;;;;5.60;1.50;;;;;;;-143.29;100.00;62188.47;4913836;29;20032;-96
2024/02/13 09:16:06;;;;;;;12.60;1.67;;;;;;;-143.29;100.00;62188.47;4914196;29;20029;-96
2024/02/13 09:18:31;;;;;;;9.32;1.55;;;;;;;-143.29;100.00;62188.47;4914780;29;20546;-96
2024/02/13 09:20:58;;;;;;;7.72;2.13;;;;;;;-143.29;100.00;62188.47;4913296;29;20028;-96
2024/02/13 09:23:27;;;;;;;8.18;2.47;;;;;;;-143.29;100.00;62188.47;4910393;29;20039;-96
2024/02/13 09:25:55;;;;;;;5.75;1.77;;;;;;;-143.29;100.00;62188.47;4909790;29;20035;-96
2024/02/13 09:28:24;;;;;;;7.80;1.70;;;;;;;-143.29;100.00;62188.47;4909961;29;20062;-96
2024/02/13 09:30:50;;;;;;;7.30;1.50;;;;;;;-143.29;100.00;62188.47;4911316;29;20029;-96
2024/02/13 09:33:22;;;;;;;7.70;2.00;;;;;;;-143.29;100.00;62188.47;4910916;29;20089;-96
2024/02/13 09:35:50;;;;;;;17.33;2.13;;;;;;;-143.29;100.00;62188.47;4909975;29;20043;-96
2024/02/13 09:38:16;;;;;;;9.50;1.45;;;;;;;-143.29;100.00;62188.47;4907997;29;20035;-96
2024/02/13 09:40:42;;;;;;;12.20;1.77;;;;;;;-143.29;100.00;62188.47;4908398;29;20029;-96
2024/02/13 09:43:08;;;;;;;7.88;1.70;;;;;;;-143.29;100.00;62188.47;4904225;29;20071;-96
2024/02/13 09:45:39;;;;;;;16.20;2.08;;;;;;;-143.29;100.00;62188.47;4903584;29;20063;-96
2024/02/13 09:48:11;;;;;;;13.68;2.10;;;;;;;-143.29;100.00;62188.47;4900620;29;20069;-96
2024/02/13 09:50:41;;;;;;;8.13;2.00;;;;;;;-143.29;100.00;62188.47;4901251;29;20395;-96
2024/02/13 09:53:16;;;;;;;9.85;2.58;;;;;;;-143.29;100.00;62188.47;4901144;29;20059;-96
2024/02/13 09:55:42;;;;;;;5.72;2.05;;;;;;;-143.29;100.00;62188.47;4900521;29;20119;-96
2024/02/13 09:58:07;;;;;;;10.90;2.13;;;;;;;-143.29;100.00;62188.47;4899447;29;20119;-96
2024/02/13 10:00:33;;;;;;;9.73;2.83;;;;;;;-143.29;100.00;62188.47;4899166;29;20024;-96
2024/02/13 10:03:02;;;;;;;9.07;2.60;;;;;;;-143.29;100.00;62188.47;4898868;29;20032;-96
2024/02/13 10:05:27;;;;;;;12.98;3.08;;;;;;;-143.29;100.00;62188.47;4899211;29;20039;-96
2024/02/13 10:07:52;;;;;;;9.20;2.50;;;;;;;-143.29;100.00;62188.47;4899392;29;20020;-96
2024/02/13 10:10:18;;;;;;;7.82;2.90;;;;;;;-143.29;100.00;62188.47;4899484;29;20040;-96
2024/02/13 10:13:03;;;;;;;10.40;2.45;;;;;;;-143.29;100.00;62188.47;4899059;29;20025;-96
2024/02/13 10:15:43;;;;;;;8.68;2.30;;;;;;;-143.29;100.00;62188.47;4898958;29;20047;-96
2024/02/13 10:18:11;;;;;;;6.40;2.45;;;;;;;-143.29;100.00;62188.47;4898736;29;20033;-96
2024/02/13 10:20:46;;;;;;;3.92;2.08;;;;;;;-143.29;100.00;62188.47;4898618;29;20035;-96
2024/02/13 10:23:14;;;;;;;8.88;2.92;;;;;;;-143.29;100.00;62188.47;4898030;29;20037;-95
2024/02/13 10:25:43;;;;;;;9.57;3.25;;;;;;;-143.29;100.00;62188.47;4898670;29;20029;-96
2024/02/13 10:28:11;;;;;;;8.48;3.10;;;;;;;-143.29;100.00;62188.47;4898389;29;20303;-95
2024/02/13 10:30:37;;;;;;;8.73;3.00;;;;;;;-143.29;100.00;62188.47;4898180;29;20028;-96
2024/02/13 10:33:06;;;;;;;8.50;3.15;;;;;;;-143.29;100.00;62188.47;4898154;29;20483;-96
2024/02/13 10:35:35;;;;;;;11.55;2.92;;;;;;;-143.29;100.00;62188.47;4898116;29;20402;-96
2024/02/13 10:38:04;;;;;;;7.85;3.58;;;;;;;-143.29;100.00;62188.47;4897842;29;20028;-95
2024/02/13 10:40:29;;;;;;;9.07;2.90;;;;;;;-143.29;100.00;62188.47;4897134;29;20017;-95
2024/02/13 10:42:56;;;;;;;7.68;2.78;;;;;;;-143.29;100.00;62188.47;4897535;29;20043;-96
2024/02/13 10:45:29;;;;;;;7.47;2.47;;;;;;;-143.29;100.00;62188.47;4897904;29;20060;-96
2024/02/13 10:48:02;;;;;;;10.05;2.47;;;;;;;-143.29;100.00;62188.47;4897732;29;20376;-95
2024/02/13 10:50:28;;;;;;;6.28;2.47;;;;;;;-143.29;100.00;62188.47;4897746;29;20091;-95
2024/02/13 10:52:58;;;;;;;11.52;2.75;;;;;;;-143.29;100.00;62188.47;4897357;29;20017;-96
2024/02/13 10:55:24;;;;;;;4.97;2.00;;;;;;;-143.29;100.00;62188.47;4897606;29;20060;-96
2024/02/13 10:57:51;;;;;;;11.45;2.40;;;;;;;-143.29;100.00;62188.47;4897498;29;20036;-96
2024/02/13 11:00:19;;;;;;;8.35;2.38;;;;;;;-143.29;100.00;62188.47;4897489;29;20036;-96
2024/02/13 11:02:51;;;;;;;6.35;2.50;;;;;;;-143.29;100.00;62188.47;4897347;29;20036;-95
2024/02/13 11:05:17;;;;;;;7.97;2.13;;;;;;;-143.29;100.00;62188.47;4897717;29;20028;-95
2024/02/13 11:07:44;;;;;;;6.50;2.22;;;;;;;-143.29;100.00;62188.47;4897512;29;20024;-96
2024/02/13 11:10:10;;;;;;;12.23;2.65;;;;;;;-143.29;100.00;62188.47;4897261;29;20029;-95
2024/02/13 11:12:37;;;;;;;8.43;2.30;;;;;;;-143.29;100.00;62188.47;4897377;29;20104;-95
2024/02/13 11:15:14;;;;;;;10.98;2.40;;;;;;;-143.29;100.00;62188.47;4897433;29;20021;-95
2024/02/13 11:17:56;;;;;;;8.93;2.10;;;;;;;-143.29;100.00;62188.47;4897094;29;20095;-96
2024/02/13 11:20:23;;;;;;;11.95;2.53;;;;;;;-143.29;100.00;62188.47;4897239;29;20040;-96
2024/02/13 11:22:55;;;;;;;8.32;2.67;;;;;;;-143.29;100.00;62188.47;4897282;29;20491;-95
2024/02/13 11:25:28;;;;;;;13.02;2.55;;;;;;;-143.29;100.00;62188.47;4897379;29;20063;-96
2024/02/13 11:28:06;;;;;;;12.20;2.50;;;;;;;-143.29;100.00;62188.47;4897071;29;20034;-96
2024/02/13 11:30:33;;;;;;;10.25;2.30;;;;;;;-143.29;100.00;62188.47;4897010;29;20025;-96
2024/02/13 11:33:01;;;;;;;17.55;2.95;;;;;;;-143.29;100.00;62188.47;4897382;29;20025;-96
2024/02/13 11:35:31;;;;;;;7.28;2.30;;;;;;;-143.29;100.00;62188.47;4896958;29;20032;-95
2024/02/13 11:38:01;;;;;;;14.45;2.40;;;;;;;-143.29;100.00;62188.47;4898552;29;20024;-96
2024/02/13 11:40:27;;;;;;;15.45;2.47;;;;;;;-143.29;100.00;62188.47;4896830;29;20120;-95
2024/02/13 11:42:53;;;;;;;5.15;1.80;;;;;;;-143.29;100.00;62188.47;4896729;29;20469;-95
2024/02/13 11:45:25;;;;;;;9.98;2.25;;;;;;;-143.29;100.00;62188.47;4897083;29;20033;-96
2024/02/13 11:47:52;;;;;;;7.70;2.08;;;;;;;-143.29;100.00;62188.47;4897020;29;20084;-95
2024/02/13 11:50:18;;;;;;;8.15;1.95;;;;;;;-143.29;100.00;62188.47;4896203;29;20025;-95
2024/02/13 11:52:44;;;;;;;8.00;2.08;;;;;;;-143.29;100.00;62188.47;4896332;29;20411;-96
2024/02/13 11:55:12;;;;;;;13.40;2.53;;;;;;;-143.29;100.00;62188.47;4881466;29;20108;-94
2024/02/13 11:57:40;;;;;;;10.43;1.83;;;;;;;-143.29;100.00;62188.47;4896617;29;20039;-96
2024/02/13 12:00:12;;;;;;;7.25;1.70;;;;;;;-143.29;100.00;62188.47;4896752;29;20029;-95
2024/02/13 12:02:40;;;;;;;6.72;1.30;;;;;;;-143.29;100.00;62188.47;4896656;29;20124;-94
2024/02/13 12:05:10;;;;;;;8.05;1.52;;;;;;;-143.29;100.00;62188.47;4896694;29;20063;-96
2024/02/13 12:07:41;;;;;;;6.47;1.30;;;;;;;-143.29;100.00;62188.47;4896739;29;20116;-95
2024/02/13 12:10:10;;;;;;;7.07;1.38;;;;;;;-143.29;100.00;62188.47;4896718;29;20029;-95
2024/02/13 12:12:35;;;;;;;3.20;0.95;;;;;;;-143.29;100.00;62188.47;4896597;29;20032;-95
2024/02/13 12:15:03;;;;;;;5.22;0.90;;;;;;;-143.29;100.00;62188.47;4896514;29;20024;-96
2024/02/13 12:17:30;;;;;;;2.75;0.80;;;;;;;-143.29;100.00;62188.47;4896417;29;20024;-95
2024/02/13 12:19:56;;;;;;;5.55;1.20;;;;;;;-143.29;100.00;62188.47;4896448;29;20024;-96
2024/02/13 12:22:23;;;;;;;4.32;0.43;;;;;;;-143.29;100.00;62188.47;4896341;29;20403;-95
2024/02/13 12:24:50;;;;;;;3.40;0.60;;;;;;;-143.29;100.00;62188.47;4896669;29;20024;-95
2024/02/13 12:27:16;;;;;;;3.53;0.73;;;;;;;-143.29;100.00;62188.47;4896233;29;20487;-95
2024/02/13 12:29:42;;;;;;;2.53;0.60;;;;;;;-143.29;100.00;62188.47;4896668;29;20039;-95
2024/02/13 12:32:09;;;;;;;1.13;0.45;;;;;;;-143.29;100.00;62188.47;4896655;29;20188;-95
2024/02/13 12:34:36;;;;;;;4.97;0.70;;;;;;;-143.29;100.00;62188.47;4896888;29;20482;-95
2024/02/13 12:37:05;;;;;;;2.20;0.43;;;;;;;-143.29;100.00;62188.47;4896454;29;20033;-95
2024/02/13 12:39:31;;;;;;;2.75;0.50;;;;;;;-143.29;100.00;62188.47;4896562;29;20112;-95
2024/02/13 12:41:57;;;;;;;1.50;0.50;;;;;;;-143.29;100.00;62188.47;4896715;29;20029;-95
2024/02/13 12:44:23;;;;;;;1.85;0.40;;;;;;;-143.29;100.00;62188.47;4899939;29;20475;-95
2024/02/13 12:46:51;;;;;;;0.75;0.28;;;;;;;-143.29;100.00;62188.47;4900868;29;20119;-96
2024/02/13 12:49:19;;;;;;;1.55;0.40;;;;;;;-143.29;100.00;62188.47;4896569;29;20024;-95
2024/02/13 12:51:48;;;;;;;1.40;0.40;;;;;;;-143.29;100.00;62188.47;4899013;29;20033;-95
2024/02/13 12:54:14;;;;;;;2.30;0.30;;;;;;;-143.29;100.00;62188.47;4896626;29;20056;-96
2024/02/13 12:56:40;;;;;;;1.20;0.22;;;;;;;-143.29;100.00;62188.47;4896841;29;20499;-95
2024/02/13 12:59:12;;;;;;;0.60;0.20;;;;;;;-143.29;100.00;62188.47;4896767;29;20052;-95
2024/02/13 13:01:47;;;;;;;0.45;0.20;;;;;;;-143.29;100.00;62188.47;4897036;29;20037;-96
2024/02/13 13:04:14;;;;;;;1.75;0.35;;;;;;;-143.29;100.00;62188.47;4900140;29;20039;-96
2024/02/13 13:06:44;;;;;;;0.85;0.10;;;;;;;-143.29;100.00;62188.47;4900260;29;20073;-96
2024/02/13 13:09:14;;;;;;;1.58;0.30;;;;;;;-143.29;100.00;62188.47;4899957;29;20443;-96
2024/02/13 13:11:40;;;;;;;0.65;0.20;;;;;;;-143.29;100.00;62188.47;4899887;29;20016;-95
2024/02/13 13:14:10;;;;;;;1.65;0.47;;;;;;;-143.29;100.00;62188.47;4899330;29;20487;-95
2024/02/13 13:16:36;;;;;;;0.45;0.30;;;;;;;-143.29;100.00;62188.47;4904172;29;20033;-96
2024/02/13 13:19:03;;;;;;;1.23;0.20;;;;;;;-143.29;100.00;62188.47;4901798;29;20360;-95
2024/02/13 13:21:33;;;;;;;1.67;0.17;;;;;;;-143.29;100.00;62188.47;4904755;29;20475;-95
2024/02/13 13:23:58;;;;;;;1.65;0.40;;;;;;;-143.29;100.00;62188.47;4904340;29;20069;-96
2024/02/13 13:26:25;;;;;;;1.52;0.30;;;;;;;-143.29;100.00;62188.47;4903735;29;20060;-95
2024/02/13 13:28:50;;;;;;;0.45;0.20;;;;;;;-143.29;100.00;62188.47;4899771;29;20036;-95
2024/02/13 13:31:17;;;;;;;1.98;0.40;;;;;;;-143.29;100.00;62188.47;4909027;29;20029;-95
2024/02/13 13:33:43;;;;;;;0.55;0.20;;;;;;;-143.29;100.00;62188.47;4903314;29;20290;-96
2024/02/13 13:36:08;;;;;;;3.67;0.35;;;;;;;-143.29;100.00;62188.47;4906747;29;20189;-96
2024/02/13 13:38:35;;;;;;;3.58;0.40;;;;;;;-143.29;100.00;62188.47;4901315;29;20060;-96
2024/02/13 13:41:03;;;;;;;2.88;0.70;;;;;;;-143.29;100.00;62188.47;4901477;29;20400;-96
2024/02/13 13:43:29;;;;;;;0.70;0.40;;;;;;;-143.29;100.00;62188.47;4902200;29;20044;-96
2024/02/13 13:45:56;;;;;;;1.60;0.30;;;;;;;-143.29;100.00;62188.47;4902272;29;20499;-95
2024/02/13 13:48:23;;;;;;;1.45;0.30;;;;;;;-143.29;100.00;62188.47;4903314;29;20047;-96
2024/02/13 13:50:49;;;;;;;1.75;0.43;;;;;;;-143.29;100.00;62188.47;4904816;29;20029;-96
2024/02/13 13:53:15;;;;;;;2.97;0.57;;;;;;;-143.29;100.00;62188.47;4901993;29;20025;-95
2024/02/13 13:55:40;;;;;;;6.70;0.60;;;;;;;-143.29;100.00;62188.47;4903034;29;20025;-96
2024/02/13 13:58:09;;;;;;;0.52;0.30;;;;;;;-143.29;100.00;62188.47;4903656;29;20060;-96
2024/02/13 14:00:34;;;;;;;1.55;0.60;;;;;;;-143.29;100.00;62188.47;4902935;29;20390;-96
2024/02/13 14:03:01;;;;;;;3.42;2.25;;;;;;;-143.29;100.00;62188.47;4903171;29;20032;-96
2024/02/13 14:05:28;;;;;;;1.92;0.68;;;;;;;-143.29;100.00;62188.47;4903166;29;20037;-96
2024/02/13 14:07:53;;;;;;;1.77;0.93;;;;;;;-143.29;100.00;62188.47;4903825;29;20479;-96
2024/02/13 14:10:20;;;;;;;5.70;0.93;;;;;;;-143.29;100.00;62188.47;4904662;29;20081;-96
2024/02/13 14:12:45;;;;;;;3.88;0.85;;;;;;;-143.29;100.00;62188.47;4905184;29;20038;-96
2024/02/13 14:15:11;;;;;;;2.08;0.65;;;;;;;-143.29;100.00;62188.47;4903651;29;20119;-96
2024/02/13 14:17:37;;;;;;;5.00;0.70;;;;;;;-143.29;100.00;62188.47;4903537;29;20054;-96
2024/02/13 14:20:06;;;;;;;3.75;1.15;;;;;;;-143.29;100.00;62188.47;4906030;29;20531;-96
2024/02/13 14:22:32;;;;;;;5.57;1.23;;;;;;;-143.29;100.00;62188.47;4905343;29;20029;-96
2024/02/13 14:24:58;;;;;;;3.40;1.00;;;;;;;-143.29;100.00;62188.47;4903514;29;20033;-96
2024/02/13 14:27:23;;;;;;;2.80;0.75;;;;;;;-143.29;100.00;62188.47;4904475;29;20051;-96
2024/02/13 14:29:48;;;;;;;2.78;0.90;;;;;;;-143.29;100.00;62188.47;4907308;29;20029;-96
2024/02/13 14:32:14;;;;;;;5.68;1.10;;;;;;;-143.29;100.00;62188.47;4907348;29;20107;-96
2024/02/13 14:34:40;;;;;;;4.35;1.08;;;;;;;-143.29;100.00;62188.47;4906962;29;20028;-95
2024/02/13 14:37:06;;;;;;;4.97;1.40;;;;;;;-143.29;100.00;62188.47;4906779;29;20050;-96
2024/02/13 14:39:35;;;;;;;4.35;1.38;;;;;;;-143.29;100.00;62188.47;4904476;29;20547;-96
2024/02/13 14:42:02;;;;;;;6.15;1.30;;;;;;;-143.29;100.00;62188.47;4905710;29;20036;-96
2024/02/13 14:44:30;;;;;;;7.93;1.70;;;;;;;-143.29;100.00;62188.47;4905957;29;20032;-96
2024/02/13 14:47:04;;;;;;;6.40;1.85;;;;;;;-143.29;100.00;62188.47;4907514;29;20033;-96
2024/02/13 14:49:34;;;;;;;5.43;1.58;;;;;;;-143.29;100.00;62188.47;4908507;29;20024;-96
2024/02/13 14:52:04;;;;;;;7.60;2.10;;;;;;;-143.29;100.00;62188.47;4909574;29;20037;-96
2024/02/13 14:54:31;;;;;;;4.47;1.60;;;;;;;-143.29;100.00;62188.47;4907749;29;20029;-96
2024/02/13 14:56:59;;;;;;;6.60;1.70;;;;;;;-143.29;100.00;62188.47;4908180;29;20029;-96
2024/02/13 14:59:25;;;;;;;5.00;1.90;;;;;;;-143.29;100.00;62188.47;4909497;29;20028;-96
2024/02/13 15:01:54;;;;;;;5.78;1.92;;;;;;;-143.29;100.00;62188.47;4909071;29;20039;-96
2024/02/13 15:04:21;;;;;;;7.38;2.15;;;;;;;-143.29;100.00;62188.47;4910641;29;20020;-96
2024/02/13 15:06:49;;;;;;;2.00;1.40;;;;;;;-143.29;100.00;62188.47;4912799;29;20024;-96
2024/02/13 15:09:15;;;;;;;5.45;1.70;;;;;;;-143.29;100.00;62188.47;4910783;29;20020;-96
2024/02/13 15:11:45;;;;;;;4.97;1.60;;;;;;;-143.29;100.00;62188.47;4911148;29;20090;-96
2024/02/13 15:14:13;;;;;;;2.13;1.25;;;;;;;-143.29;100.00;62188.47;4905558;29;20035;-96
2024/02/13 15:16:39;;;;;;;5.35;1.58;;;;;;;-143.29;100.00;62188.47;4912238;29;20057;-96
2024/02/13 15:19:05;;;;;;;2.50;1.30;;;;;;;-143.29;100.00;62188.47;4910393;29;20028;-96
2024/02/13 15:21:34;;;;;;;6.13;1.50;;;;;;;-143.29;100.00;62188.47;4911956;29;20079;-96
2024/02/13 15:24:00;;;;;;;5.40;1.30;;;;;;;-143.29;100.00;62188.47;4912977;29;20033;-96
2024/02/13 15:26:28;;;;;;;5.22;1.40;;;;;;;-143.29;100.00;62188.47;4911638;29;20084;-96
2024/02/13 15:28:54;;;;;;;4.97;1.20;;;;;;;-143.29;100.00;62188.47;4913060;29;20039;-96
2024/02/13 15:31:20;;;;;;;2.47;1.15;;;;;;;-143.29;100.00;62188.47;4912898;29;20029;-96
2024/02/13 15:33:47;;;;;;;6.28;1.38;;;;;;;-143.29;100.00;62188.47;4914174;29;20069;-96
2024/02/13 15:36:31;;;;;;;3.03;0.85;;;;;;;-143.29;100.00;62188.47;4913009;29;20036;-96
2024/02/13 15:47:16;;;;;;;3.92;0.98;;;;;;;-143.29;100.00;62188.47;4914308;29;20060;-96
2024/02/13 15:49:45;;;;;;;2.33;0.73;;;;;;;-143.29;100.00;62188.47;4915992;29;20028;-96
2024/02/13 15:52:14;;;;;;;6.63;1.00;;;;;;;-143.29;100.00;62188.47;4915935;29;20100;-96
2024/02/13 15:54:57;;;;;;;5.75;1.08;;;;;;;-143.29;100.00;62188.47;4919084;29;20009;-96
2024/02/13 15:57:24;;;;;;;5.53;0.90;;;;;;;-143.29;100.00;62188.47;4916651;29;20127;-96
2024/02/13 15:59:51;;;;;;;9.50;1.40;;;;;;;-143.29;100.00;62188.47;4916760;29;20032;-96
2024/02/13 16:02:18;;;;;;;7.28;1.05;;;;;;;-143.29;100.00;62188.47;4912911;29;20120;-96
2024/02/13 16:05:08;;;;;;;10.38;1.25;;;;;;;-143.29;100.00;62188.47;4917006;29;20024;-96
2024/02/13 16:07:33;;;;;;;9.65;1.40;;;;;;;-143.29;100.00;62188.47;4918911;29;20029;-96
2024/02/13 16:10:01;;;;;;;6.72;1.73;;;;;;;-143.29;100.00;62188.47;4917179;29;20033;-96
2024/02/13 16:12:29;;;;;;;10.93;1.60;;;;;;;-143.29;100.00;62188.47;4917457;29;20029;-96
2024/02/13 16:14:59;;;;;;;14.68;2.30;;;;;;;-143.29;100.00;62188.47;4918097;29;20025;-96
2024/02/13 16:17:34;;;;;;;8.50;1.52;;;;;;;-143.29;100.00;62188.47;4919079;29;20024;-96
2024/02/13 16:20:15;;;;;;;15.00;2.97;;;;;;;-143.29;100.00;62188.47;4918150;29;20040;-96
2024/02/13 16:22:44;;;;;;;16.67;2.10;;;;;;;-143.29;100.00;62188.47;4919958;29;20028;-96
2024/02/13 16:25:13;;;;;;;13.55;1.85;;;;;;;-143.29;100.00;62188.47;4903312;29;20040;-96
2024/02/13 16:27:40;;;;;;;12.38;1.98;;;;;;;-143.29;100.00;62188.47;4903224;29;20035;-96
2024/02/13 16:30:10;;;;;;;18.30;2.67;;;;;;;-143.29;100.00;62188.47;4917956;29;20040;-96
2024/02/13 16:32:36;;;;;;;13.93;2.38;;;;;;;-143.29;100.00;62188.47;4916148;29;20009;-96
2024/02/13 16:35:08;;;;;;;16.60;2.55;;;;;;;-143.29;100.00;62188.47;4912730;29;20029;-96
2024/02/13 16:37:34;;;;;;;11.50;2.00;;;;;;;-143.29;100.00;62188.47;4916015;29;20049;-96
2024/02/13 16:40:04;;;;;;;13.98;2.38;;;;;;;-143.29;100.00;62188.47;4920711;29;20037;-96
2024/02/13 16:42:52;;;;;;;17.17;3.42;;;;;;;-143.29;100.00;62188.47;4918899;29;20036;-96
2024/02/13 16:45:20;;;;;;;10.80;2.47;;;;;;;-143.29;100.00;62188.47;4902066;29;20036;-96
2024/02/13 16:47:47;;;;;;;11.50;1.92;;;;;;;-143.29;100.00;62188.47;4914034;29;20036;-96
2024/02/13 16:50:14;;;;;;;15.65;3.17;;;;;;;-143.29;100.00;62188.47;4911616;29;20095;-96
2024/02/13 16:52:41;;;;;;;14.75;3.40;;;;;;;-143.29;100.00;62188.47;4907051;29;20517;-96
2024/02/13 16:55:08;;;;;;;27.13;3.35;;;;;;;-143.29;100.00;62188.47;4907671;29;20024;-96
2024/02/13 16:57:39;;;;;;;13.63;2.42;;;;;;;-143.29;100.00;62188.47;4907366;29;20032;-96
2024/02/13 17:00:08;;;;;;;;;;;;;;;-143.29;100.00;62188.47;4909449;29;20411;-96
2024/02/13 17:02:35;;;;;;;16.45;3.30;;;;;;;-143.29;100.00;62188.47;4908840;29;19915;-96
2024/02/13 17:05:03;;;;;;;12.95;2.13;;;;;;;-143.29;100.00;62188.47;4908985;29;20028;-96
2024/02/13 17:07:29;;;;;;;16.52;2.65;;;;;;;-143.29;100.00;62188.47;4904156;29;20040;-96
2024/02/13 17:09:54;;;;;;;12.93;2.95;;;;;;;-143.29;100.00;62188.47;4904421;29;20395;-96
2024/02/13 17:12:20;;;;;;;18.80;3.95;;;;;;;-143.29;100.00;62188.47;4904787;29;20594;-96
2024/02/13 17:14:46;;;;;;;14.35;3.05;;;;;;;-143.29;100.00;62188.47;4904914;29;20029;-96
2024/02/13 17:17:13;;;;;;;13.85;3.40;;;;;;;-143.29;100.00;62188.47;4904283;29;20029;-96
2024/02/13 17:19:39;;;;;;;18.38;2.70;;;;;;;-143.29;100.00;62188.47;4902615;29;20025;-96
2024/02/13 17:22:04;;;;;;;15.07;2.33;;;;;;;-143.29;100.00;62188.47;4902592;29;20029;-96
2024/02/13 17:24:30;;;;;;;19.60;2.38;;;;;;;-143.29;100.00;62188.47;4902557;29;20040;-96
2024/02/13 17:26:55;;;;;;;15.98;3.28;;;;;;;-143.29;100.00;62188.47;4903927;29;20120;-96
2024/02/13 17:29:21;;;;;;;8.38;1.42;;;;;;;-143.29;100.00;62188.47;4904444;29;20028;-96
2024/02/13 17:31:46;;;;;;;9.18;2.20;;;;;;;-143.29;100.00;62188.47;4902959;29;20044;-96
2024/02/13 17:34:12;;;;;;;9.75;2.10;;;;;;;-143.29;100.00;62188.47;4902676;29;20029;-96
2024/02/13 17:36:37;;;;;;;7.28;1.20;;;;;;;-143.29;100.00;62188.47;4901854;29;20033;-96
2024/02/13 17:39:05;;;;;;;8.18;1.70;;;;;;;-143.29;100.00;62188.47;4902925;29;20036;-96
2024/02/13 17:41:30;;;;;;;6.03;0.93;;;;;;;-143.29;100.00;62188.47;4905695;29;20092;-96
2024/02/13 17:43:57;;;;;;;3.83;0.90;;;;;;;-143.29;100.00;62188.47;4905536;29;20075;-96
2024/02/13 17:46:22;;;;;;;6.82;1.08;;;;;;;-143.29;100.00;62188.47;4904377;29;20025;-96
2024/02/13 17:48:48;;;;;;;2.28;0.68;;;;;;;-143.29;100.00;62188.47;4904960;29;20096;-96
2024/02/13 17:51:14;;;;;;;2.08;0.50;;;;;;;-143.29;100.00;62188.47;4905024;29;20068;-96
2024/02/13 17:53:41;;;;;;;2.33;0.60;;;;;;;-143.29;100.00;62188.47;4900491;29;20483;-96
2024/02/13 17:56:09;;;;;;;7.38;2.92;;;;;;;-143.29;100.00;62188.47;4901191;29;20481;-96
2024/02/13 17:58:35;;;;;;;2.40;0.80;;;;;;;-143.29;100.00;62188.47;4901256;29;20024;-96
2024/02/13 18:01:00;;;;;;;9.95;4.03;;;;;;;-143.29;100.00;62188.47;4901556;29;20029;-96
2024/02/13 18:03:27;;;;;;;4.55;0.85;;;;;;;-143.29;100.00;62188.47;4903519;29;20384;-96
2024/02/13 18:05:53;;;;;;;4.78;1.02;;;;;;;-143.29;100.00;62188.47;4902337;29;20035;-96
2024/02/13 18:08:18;;;;;;;8.38;0.70;;;;;;;-143.29;100.00;62188.47;4902302;29;20458;-96
2024/02/13 18:10:44;;;;;;;4.13;1.05;;;;;;;-143.29;100.00;62188.47;4902082;29;20034;-96
2024/02/13 18:13:11;;;;;;;3.15;0.77;;;;;;;-143.29;100.00;62188.47;4899214;29;20439;-96
2024/02/13 18:15:39;;;;;;;8.52;1.90;;;;;;;-143.29;100.00;62188.47;4899844;29;20119;-96
2024/02/13 18:18:08;;;;;;;2.90;1.08;;;;;;;-143.29;100.00;62188.47;4903551;29;20024;-96
2024/02/13 18:20:38;;;;;;;4.65;1.30;;;;;;;-143.29;100.00;62188.47;4902693;29;20503;-96
2024/02/13 18:23:05;;;;;;;6.95;1.33;;;;;;;-143.29;100.00;62188.47;4907285;29;20044;-96
2024/02/13 18:25:31;;;;;;;8.32;2.38;;;;;;;-143.29;100.00;62188.47;4906721;29;20172;-96
2024/02/13 18:27:56;;;;;;;9.30;1.88;;;;;;;-143.29;100.00;62188.47;4906046;29;20053;-96
2024/02/13 18:30:24;;;;;;;7.45;1.40;;;;;;;-143.29;100.00;62188.47;4909924;29;20559;-96
2024/02/13 18:32:50;;;;;;;5.13;1.70;;;;;;;-143.29;100.00;62188.47;4907329;29;20033;-96
2024/02/13 18:35:17;;;;;;;11.27;5.90;;;;;;;-143.29;100.00;62188.47;4909581;29;20035;-96
2024/02/13 18:37:43;;;;;;;13.70;2.47;;;;;;;-143.29;100.00;62188.47;4909075;29;20032;-96
2024/02/13 18:40:09;;;;;;;7.68;1.55;;;;;;;-143.29;100.00;62188.47;4910781;29;20029;-96
2024/02/13 18:42:35;;;;;;;13.00;2.05;;;;;;;-143.29;100.00;62188.47;4913096;29;20100;-96
2024/02/13 18:45:01;;;;;;;11.95;1.75;;;;;;;-143.29;100.00;62188.47;4911690;29;20061;-96
2024/02/13 18:47:26;;;;;;;11.70;1.58;;;;;;;-143.29;100.00;62188.47;4907076;29;20059;-96
2024/02/13 18:49:53;;;;;;;10.63;1.77;;;;;;;-143.29;100.00;62188.47;4907155;29;20102;-96
2024/02/13 18:52:19;;;;;;;12.35;2.10;;;;;;;-143.29;100.00;62188.47;4908007;29;20080;-96
2024/02/13 18:54:45;;;;;;;12.82;2.22;;;;;;;-143.29;100.00;62188.47;4912605;29;20025;-96
2024/02/13 18:57:12;;;;;;;14.85;2.65;;;;;;;-143.29;100.00;62188.47;4915795;29;20028;-96
2024/02/13 18:59:41;;;;;;;12.27;2.35;;;;;;;-143.29;100.00;62188.47;4898166;29;20088;-96
2024/02/13 19:02:08;;;;;;;21.73;2.35;;;;;;;-143.29;100.00;62188.47;4915883;29;20025;-96
2024/02/13 19:04:34;;;;;;;19.88;2.83;;;;;;;-143.29;100.00;62188.47;4913306;29;20040;-96
2024/02/13 19:07:03;;;;;;;17.92;2.45;;;;;;;-143.29;100.00;62188.47;4916132;29;20013;-96
2024/02/13 19:09:30;;;;;;;17.52;2.72;;;;;;;-143.29;100.00;62188.47;4915462;29;20088;-96
2024/02/13 19:11:55;;;;;;;24.48;2.88;;;;;;;-143.29;100.00;62188.47;4913770;29;20033;-96
2024/02/13 19:14:23;;;;;;;17.35;2.45;;;;;;;-143.29;100.00;62188.47;4913620;29;20031;-96
2024/02/13 19:16:53;;;;;;;17.30;2.63;;;;;;;-143.29;100.00;62188.47;4913839;29;20028;-96
2024/02/13 19:19:18;;;;;;;17.73;2.60;;;;;;;-143.29;100.00;62188.47;4914311;29;20029;-96
2024/02/13 19:21:47;;;;;;;18.63;3.83;;;;;;;-143.29;100.00;62188.47;4913700;29;20057;-96
2024/02/13 19:24:13;;;;;;;25.80;3.03;;;;;;;-143.29;100.00;62188.47;4914730;29;20277;-96
2024/02/13 19:26:39;;;;;;;24.15;3.00;;;;;;;-143.29;100.00;62188.47;4912617;29;20116;-96
2024/02/13 19:29:08;;;;;;;18.95;2.60;;;;;;;-143.29;100.00;62188.47;4913017;29;20150;-96
2024/02/13 19:31:34;;;;;;;18.70;2.80;;;;;;;-143.29;100.00;62188.47;4912227;29;20043;-96
2024/02/13 19:34:00;;;;;;;12.75;1.80;;;;;;;-143.29;100.00;62188.47;4910298;29;20032;-96
2024/02/13 19:36:31;;;;;;;14.90;2.67;;;;;;;-143.29;100.00;62188.47;4915313;29;20035;-96
2024/02/13 19:38:58;;;;;;;21.20;3.38;;;;;;;-143.29;100.00;62188.47;4913429;29;20024;-96
2024/02/13 19:41:25;;;;;;;19.98;2.97;;;;;;;-143.29;100.00;62188.47;4914337;29;20181;-96
2024/02/13 19:43:52;;;;;;;25.05;3.75;;;;;;;-143.29;100.00;62188.47;4917780;29;20040;-96
2024/02/13 19:46:24;;;;;;;19.00;2.88;;;;;;;-143.29;100.00;62188.47;4916455;29;20045;-96
2024/02/13 19:48:50;;;;;;;19.20;3.22;;;;;;;-143.29;100.00;62188.47;4900503;29;20028;-96
2024/02/13 19:51:17;;;;;;;21.25;2.25;;;;;;;-143.29;100.00;62188.47;4915415;29;20039;-96
2024/02/13 19:53:45;;;;;;;13.95;2.00;;;;;;;-143.29;100.00;62188.47;4898770;29;20044;-96
2024/02/13 19:56:14;;;;;;;14.68;3.35;;;;;;;-143.29;100.00;62188.47;4916060;29;20221;-95
2024/02/13 19:58:39;;;;;;;18.20;2.65;;;;;;;-143.29;100.00;62188.47;4912208;29;20092;-96